Time;durP1;ratioP1;P1;durP2;ratioP2;P2;SDS_P1;SDS_P2;PMS_P1;PMS_P2;Temp;Humidity;BMP_temperature;BMP_pressure;BME280_temperature;BME280_humidity;BME280_pressure;Samples;Min_cycle;Max_cycle;Signal;HPM_P1;HPM_P2
2023/05/21 00:00:11;;;;;;;;;;;;;;;;;;5030740;28;19971;-79
2023/05/21 00:02:39;;;;;;;;;;;;;;;;;;5034548;28;19918;-78
2023/05/21 00:05:05;;;;;;;;;;;;;;;;;;5031213;28;19923;-77
2023/05/21 00:07:32;;;;;;;;;;;;;;;;;;5028383;28;19922;-79
2023/05/21 00:09:57;;;;;;;;;;;;;;;;;;5022305;28;20018;-79
2023/05/21 00:12:22;;;;;;;;;;;;;;;;;;5015459;28;19917;-79
2023/05/21 00:14:48;;;;;;;;;;;;;;;;;;5013968;28;19918;-79
2023/05/21 00:17:13;;;;;;;;;;;;;;;;;;5014763;28;20405;-79
2023/05/21 00:19:39;;;;;;;;;;;;;;;;;;5013639;28;19918;-80
2023/05/21 00:22:04;;;;;;;;;;;;;;;;;;5014448;28;19949;-78
2023/05/21 00:24:29;;;;;;;;;;;;;;;;;;5013968;28;20365;-80
2023/05/21 00:26:55;;;;;;;;;;;;;;;;;;5014705;28;19914;-79
2023/05/21 00:29:21;;;;;;;;;;;;;;;;;;5015808;28;20012;-78
2023/05/21 00:31:46;;;;;;;;;;;;;;;;;;5014744;28;20369;-79
2023/05/21 00:34:12;;;;;;;;;;;;;;;;;;5014740;28;19913;-79
2023/05/21 00:36:39;;;;;;;;;;;;;;;;;;4997417;28;20288;-79
2023/05/21 00:39:04;;;;;;;;;;;;;;;;;;5013210;28;19941;-78
2023/05/21 00:41:30;;;;;;;;;;;;;;;;;;5012139;28;20541;-78
2023/05/21 00:43:56;;;;;;;;;;;;;;;;;;5014589;28;20288;-79
2023/05/21 00:46:21;;;;;;;;;;;;;;;;;;5014399;28;20300;-78
2023/05/21 00:48:46;;;;;;;;;;;;;;;;;;5013207;28;19921;-79
2023/05/21 00:51:12;;;;;;;;;;;;;;;;;;5014370;28;19917;-79
2023/05/21 00:53:37;;;;;;;;;;;;;;;;;;5013055;28;19920;-80
2023/05/21 00:56:02;;;;;;;;;;;;;;;;;;5013978;28;19917;-80
2023/05/21 00:58:28;;;;;;;;;;;;;;;;;;5012829;28;19913;-80
2023/05/21 01:00:55;;;;;;;;;;;;;;;;;;5013640;28;20443;-79
2023/05/21 01:03:20;;;;;;;;;;;;;;;;;;5013755;28;20392;-78
2023/05/21 01:05:47;;;;;;;;;;;;;;;;;;5013774;28;19913;-79
2023/05/21 01:08:13;;;;;;;;;;;;;;;;;;5013573;28;19914;-78
2023/05/21 01:10:39;;;;;;;;;;;;;;;;;;5012253;28;20020;-79
2023/05/21 01:13:04;;;;;;;;;;;;;;;;;;4996015;28;19913;-80
2023/05/21 01:15:30;;;;;;;;;;;;;;;;;;4994953;28;20013;-79
2023/05/21 01:17:55;;;;;;;;;;;;;;;;;;5013369;28;19953;-79
2023/05/21 01:20:21;;;;;;;;;;;;;;;;;;5013245;28;20269;-79
2023/05/21 01:22:47;;;;;;;;;;;;;;;;;;5013508;28;19960;-79
2023/05/21 01:25:15;;;;;;;;;;;;;;;;;;5012552;28;19917;-79
2023/05/21 01:27:40;;;;;;;;;;;;;;;;;;5013797;28;19913;-79
2023/05/21 01:30:08;;;;;;;;;;;;;;;;;;5013458;28;19914;-79
2023/05/21 01:32:33;;;;;;;;;;;;;;;;;;5011683;28;20012;-79
2023/05/21 01:34:59;;;;;;;;;;;;;;;;;;5013531;28;19928;-79
2023/05/21 01:37:25;;;;;;;;;;;;;;;;;;4996415;28;19943;-79
2023/05/21 01:39:50;;;;;;;;;;;;;;;;;;5012249;28;20406;-78
2023/05/21 01:42:15;;;;;;;;;;;;;;;;;;5013392;28;19913;-79
2023/05/21 01:44:42;;;;;;;;;;;;;;;;;;5012371;28;19961;-79
2023/05/21 01:47:07;;;;;;;;;;;;;;;;;;5012350;28;19945;-79
2023/05/21 01:49:32;;;;;;;;;;;;;;;;;;5011172;28;19914;-78
2023/05/21 01:51:58;;;;;;;;;;;;;;;;;;5012570;28;19913;-78
2023/05/21 01:54:23;;;;;;;;;;;;;;;;;;5012647;28;19933;-78
2023/05/21 01:56:49;;;;;;;;;;;;;;;;;;5014168;28;19917;-80
2023/05/21 01:59:17;;;;;;;;;;;;;;;;;;4996646;28;19914;-79
2023/05/21 02:01:42;;;;;;;;;;;;;;;;;;4996496;28;19964;-79
2023/05/21 02:04:08;;;;;;;;;;;;;;;;;;4995587;28;19913;-78
2023/05/21 02:06:34;;;;;;;;;;;;;;;;;;5016224;28;19955;-78
2023/05/21 02:09:03;;;;;;;;;;;;;;;;;;5018772;28;19917;-79
2023/05/21 02:11:29;;;;;;;;;;;;;;;;;;5018895;28;19921;-78
2023/05/21 02:13:56;;;;;;;;;;;;;;;;;;5016523;28;19913;-78
2023/05/21 02:16:21;;;;;;;;;;;;;;;;;;5015865;28;19918;-78
2023/05/21 02:18:50;;;;;;;;;;;;;;;;;;5014276;28;19913;-78
2023/05/21 02:21:15;;;;;;;;;;;;;;;;;;5011945;28;19914;-77
2023/05/21 02:23:41;;;;;;;;;;;;;;;;;;5014492;28;19921;-78
2023/05/21 02:26:06;;;;;;;;;;;;;;;;;;4997615;28;19913;-77
2023/05/21 02:28:32;;;;;;;;;;;;;;;;;;5015441;28;20407;-79
2023/05/21 02:30:57;;;;;;;;;;;;;;;;;;5016375;28;19945;-77
2023/05/21 02:33:22;;;;;;;;;;;;;;;;;;5016382;28;20391;-77
2023/05/21 02:35:48;;;;;;;;;;;;;;;;;;5012842;28;19925;-78
2023/05/21 02:38:13;;;;;;;;;;;;;;;;;;4995309;28;19945;-78
2023/05/21 02:40:38;;;;;;;;;;;;;;;;;;5012355;28;19940;-79
2023/05/21 02:43:07;;;;;;;;;;;;;;;;;;4997075;28;19913;-78
2023/05/21 02:45:35;;;;;;;;;;;;;;;;;;5013804;28;19952;-78
2023/05/21 02:48:01;;;;;;;;;;;;;;;;;;5013735;28;20344;-79
2023/05/21 02:50:27;;;;;;;;;;;;;;;;;;5013721;28;19924;-79
2023/05/21 02:52:56;;;;;;;;;;;;;;;;;;5015326;28;19913;-79
2023/05/21 02:55:21;;;;;;;;;;;;;;;;;;5018170;28;19917;-79
2023/05/21 02:57:46;;;;;;;;;;;;;;;;;;4992076;28;19961;-79
2023/05/21 03:00:12;;;;;;;;;;;;;;;;;;5013878;28;20002;-79
2023/05/21 03:02:38;;;;;;;;;;;;;;;;;;5032107;28;19917;-80
2023/05/21 03:05:04;;;;;;;;;;;;;;;;;;5031532;28;19909;-79
2023/05/21 03:07:29;;;;;;;;;;;;;;;;;;5030317;28;19917;-78
2023/05/21 03:09:55;;;;;;;;;;;;;;;;;;5013032;28;20349;-79
2023/05/21 03:12:29;;;;;;;;;;;;;;;;;;5024675;28;19913;-78
2023/05/21 03:14:55;;;;;;;;;;;;;;;;;;4997753;28;20559;-79
2023/05/21 03:17:21;;;;;;;;;;;;;;;;;;5014878;28;19909;-78
2023/05/21 03:19:49;;;;;;;;;;;;;;;;;;5014744;28;20288;-78
2023/05/21 03:22:15;;;;;;;;;;;;;;;;;;4998588;28;19918;-78
2023/05/21 03:24:41;;;;;;;;;;;;;;;;;;5014790;28;19910;-79
2023/05/21 03:27:07;;;;;;;;;;;;;;;;;;5014806;28;19957;-79
2023/05/21 03:29:33;;;;;;;;;;;;;;;;;;4997431;28;19964;-78
2023/05/21 03:32:00;;;;;;;;;;;;;;;;;;5014669;28;19966;-80
2023/05/21 03:34:25;;;;;;;;;;;;;;;;;;5014803;28;19918;-78
2023/05/21 03:36:50;;;;;;;;;;;;;;;;;;5014871;28;19913;-79
2023/05/21 03:39:17;;;;;;;;;;;;;;;;;;5015361;28;20027;-79
2023/05/21 03:41:42;;;;;;;;;;;;;;;;;;5014580;28;20457;-78
2023/05/21 03:44:18;;;;;;;;;;;;;;;;;;5015768;28;20380;-79
2023/05/21 03:47:10;;;;;;;;;;;;;;;;;;5016411;28;20007;-79
2023/05/21 03:49:35;;;;;;;;;;;;;;;;;;5023189;28;20100;-78
2023/05/21 03:52:01;;;;;;;;;;;;;;;;;;5024274;28;19916;-77
2023/05/21 03:54:29;;;;;;;;;;;;;;;;;;5029936;28;19944;-78
2023/05/21 03:56:59;;;;;;;;;;;;;;;;;;5024083;28;19921;-79
2023/05/21 03:59:26;;;;;;;;;;;;;;;;;;5017265;28;19913;-78
2023/05/21 04:01:55;;;;;;;;;;;;;;;;;;5017214;28;19910;-78
2023/05/21 04:04:20;;;;;;;;;;;;;;;;;;5013280;28;20408;-78
2023/05/21 04:06:47;;;;;;;;;;;;;;;;;;5013625;28;19920;-78
2023/05/21 04:09:12;;;;;;;;;;;;;;;;;;5013526;28;20300;-79
2023/05/21 04:11:37;;;;;;;;;;;;;;;;;;4997155;28;19918;-79
2023/05/21 04:14:03;;;;;;;;;;;;;;;;;;5014636;28;19917;-79
2023/05/21 04:16:29;;;;;;;;;;;;;;;;;;5013258;28;19925;-79
2023/05/21 04:18:54;;;;;;;;;;;;;;;;;;5013504;28;20020;-80
2023/05/21 04:21:21;;;;;;;;;;;;;;;;;;5012043;28;19961;-78
2023/05/21 04:23:46;;;;;;;;;;;;;;;;;;5013453;28;19914;-78
2023/05/21 04:26:34;;;;;;;;;;;;;;;;;;5012639;28;19918;-79
2023/05/21 04:29:02;;;;;;;;;;;;;;;;;;5013289;28;20340;-79
2023/05/21 04:31:27;;;;;;;;;;;;;;;;;;5013017;28;19953;-79
2023/05/21 04:33:53;;;;;;;;;;;;;;;;;;5013278;28;19960;-79
2023/05/21 04:36:19;;;;;;;;;;;;;;;;;;4995384;28;19984;-78
2023/05/21 04:38:44;;;;;;;;;;;;;;;;;;4996908;28;20331;-79
2023/05/21 04:41:10;;;;;;;;;;;;;;;;;;5012727;28;20404;-78
2023/05/21 04:43:35;;;;;;;;;;;;;;;;;;5014225;28;20399;-78
2023/05/21 04:46:01;;;;;;;;;;;;;;;;;;5012888;28;19963;-79
2023/05/21 04:48:27;;;;;;;;;;;;;;;;;;5012887;28;19919;-78
2023/05/21 04:50:52;;;;;;;;;;;;;;;;;;5013839;28;19941;-79
2023/05/21 04:53:18;;;;;;;;;;;;;;;;;;5012599;28;20372;-79
2023/05/21 04:55:46;;;;;;;;;;;;;;;;;;5014017;28;19917;-80
2023/05/21 04:58:17;;;;;;;;;;;;;;;;;;5012783;28;20372;-79
2023/05/21 05:00:45;;;;;;;;;;;;;;;;;;5012433;28;19920;-79
2023/05/21 05:03:11;;;;;;;;;;;;;;;;;;5013783;28;19920;-79
2023/05/21 05:05:39;;;;;;;;;;;;;;;;;;5012390;28;20008;-79
2023/05/21 05:08:05;;;;;;;;;;;;;;;;;;5012513;28;20372;-79
2023/05/21 05:10:31;;;;;;;;;;;;;;;;;;5012419;28;19963;-79
2023/05/21 05:12:59;;;;;;;;;;;;;;;;;;5013939;28;19960;-78
2023/05/21 05:15:25;;;;;;;;;;;;;;;;;;5012704;28;19921;-79
2023/05/21 05:17:50;;;;;;;;;;;;;;;;;;5012722;28;20424;-78
2023/05/21 05:20:15;;;;;;;;;;;;;;;;;;5013807;28;20400;-78
2023/05/21 05:22:41;;;;;;;;;;;;;;;;;;5014504;28;19913;-79
2023/05/21 05:25:12;;;;;;;;;;;;;;;;;;5017049;28;19924;-79
2023/05/21 05:27:38;;;;;;;;;;;;;;;;;;5017264;28;19975;-78
2023/05/21 05:30:03;;;;;;;;;;;;;;;;;;5018825;28;19917;-79
2023/05/21 05:32:30;;;;;;;;;;;;;;;;;;4998627;28;19917;-78
2023/05/21 05:34:55;;;;;;;;;;;;;;;;;;5001004;28;19917;-78
2023/05/21 05:37:23;;;;;;;;;;;;;;;;;;5013705;28;20434;-78
2023/05/21 05:39:49;;;;;;;;;;;;;;;;;;4995276;28;19914;-78
2023/05/21 05:42:15;;;;;;;;;;;;;;;;;;5011914;28;19963;-79
2023/05/21 05:44:41;;;;;;;;;;;;;;;;;;5010869;28;19918;-79
2023/05/21 05:47:09;;;;;;;;;;;;;;;;;;4995406;28;19973;-79
2023/05/21 05:49:37;;;;;;;;;;;;;;;;;;5011555;28;19959;-79
2023/05/21 05:52:03;;;;;;;;;;;;;;;;;;5011925;28;20339;-78
2023/05/21 05:54:28;;;;;;;;;;;;;;;;;;5012401;28;19917;-79
2023/05/21 05:56:54;;;;;;;;;;;;;;;;;;5012664;28;19987;-78
2023/05/21 05:59:20;;;;;;;;;;;;;;;;;;5011522;28;19960;-78
2023/05/21 06:01:50;;;;;;;;;;;;;;;;;;5013226;28;19917;-78
2023/05/21 06:04:16;;;;;;;;;;;;;;;;;;5014705;28;19914;-78
2023/05/21 06:06:41;;;;;;;;;;;;;;;;;;5005012;28;20278;-80
2023/05/21 06:09:10;;;;;;;;;;;;;;;;;;5017997;28;19952;-79
2023/05/21 06:11:36;;;;;;;;;;;;;;;;;;5033219;28;19914;-79
2023/05/21 06:14:01;;;;;;;;;;;;;;;;;;5017331;28;19937;-79
2023/05/21 06:16:26;;;;;;;;;;;;;;;;;;4994895;28;19909;-79
2023/05/21 06:18:52;;;;;;;;;;;;;;;;;;5011910;28;19945;-79
2023/05/21 06:21:17;;;;;;;;;;;;;;;;;;5020689;28;19944;-80
2023/05/21 06:23:43;;;;;;;;;;;;;;;;;;5012678;28;19914;-79
2023/05/21 06:26:11;;;;;;;;;;;;;;;;;;5012376;28;19913;-79
2023/05/21 06:28:37;;;;;;;;;;;;;;;;;;5016921;28;20344;-80
2023/05/21 06:31:06;;;;;;;;;;;;;;;;;;5012171;28;20367;-80
2023/05/21 06:33:33;;;;;;;;;;;;;;;;;;4995833;28;19913;-78
2023/05/21 06:35:59;;;;;;;;;;;;;;;;;;5013022;28;19927;-80
2023/05/21 06:38:24;;;;;;;;;;;;;;;;;;5011873;28;19909;-80
2023/05/21 06:40:50;;;;;;;;;;;;;;;;;;5010969;28;20415;-79
2023/05/21 06:43:29;;;;;;;;;;;;;;;;;;5011734;28;19913;-78
2023/05/21 06:46:15;;;;;;;;;;;;;;;;;;5011664;28;19960;-79
2023/05/21 06:48:44;;;;;;;;;;;;;;;;;;5010703;28;20451;-79
2023/05/21 06:51:10;;;;;;;;;;;;;;;;;;5015322;28;19944;-80
2023/05/21 06:53:35;;;;;;;;;;;;;;;;;;5015285;28;19992;-79
2023/05/21 06:56:01;;;;;;;;;;;;;;;;;;5015184;28;19918;-80
2023/05/21 06:58:39;;;;;;;;;;;;;;;;;;5015679;28;19953;-83
2023/05/21 07:01:05;;;;;;;;;;;;;;;;;;5019020;28;19936;-80
2023/05/21 07:03:31;;;;;;;;;;;;;;;;;;5005016;28;19913;-82
2023/05/21 07:05:56;;;;;;;;;;;;;;;;;;5034604;28;19929;-80
2023/05/21 07:08:22;;;;;;;;;;;;;;;;;;5035689;28;19914;-79
2023/05/21 07:10:47;;;;;;;;;;;;;;;;;;5012944;28;20357;-78
2023/05/21 07:13:12;;;;;;;;;;;;;;;;;;5026456;28;19949;-80
2023/05/21 07:15:38;;;;;;;;;;;;;;;;;;5031406;28;20435;-80
2023/05/21 07:18:03;;;;;;;;;;;;;;;;;;5022015;28;19917;-78
2023/05/21 07:20:28;;;;;;;;;;;;;;;;;;5000072;28;20556;-80
2023/05/21 07:22:56;;;;;;;;;;;;;;;;;;4997378;28;20008;-80
2023/05/21 07:25:22;;;;;;;;;;;;;;;;;;5014609;28;20359;-80
2023/05/21 07:27:47;;;;;;;;;;;;;;;;;;5014257;28;20361;-80
2023/05/21 07:30:13;;;;;;;;;;;;;;;;;;5014040;28;19960;-80
2023/05/21 07:32:39;;;;;;;;;;;;;;;;;;5014362;28;19964;-80
2023/05/21 07:35:05;;;;;;;;;;;;;;;;;;5015367;28;19924;-81
2023/05/21 07:37:34;;;;;;;;;;;;;;;;;;4981877;28;20009;-80
2023/05/21 07:39:59;;;;;;;;;;;;;;;;;;5012826;28;19917;-80
2023/05/21 07:42:24;;;;;;;;;;;;;;;;;;5014080;28;20059;-80
2023/05/21 07:44:51;;;;;;;;;;;;;;;;;;5014045;28;19913;-79
2023/05/21 07:47:17;;;;;;;;;;;;;;;;;;4997516;28;20346;-79
2023/05/21 07:49:46;;;;;;;;;;;;;;;;;;4997909;28;19917;-79
2023/05/21 07:52:11;;;;;;;;;;;;;;;;;;5013420;28;19921;-80
2023/05/21 07:54:37;;;;;;;;;;;;;;;;;;5013852;28;20439;-79
2023/05/21 07:57:06;;;;;;;;;;;;;;;;;;4997897;28;19914;-80
2023/05/21 07:59:58;;;;;;;;;;;;;;;;;;5014198;28;19913;-79
2023/05/21 08:02:24;;;;;;;;;;;;;;;;;;5012629;28;20268;-82
2023/05/21 08:04:51;;;;;;;;;;;;;;;;;;5013862;28;20450;-80
2023/05/21 08:07:18;;;;;;;;;;;;;;;;;;5013768;28;19945;-81
2023/05/21 08:09:44;;;;;;;;;;;;;;;;;;5013184;28;19921;-82
2023/05/21 08:12:13;;;;;;;;;;;;;;;;;;4996031;28;19918;-80
2023/05/21 08:14:38;;;;;;;;;;;;;;;;;;4981995;28;19924;-79
2023/05/21 08:17:06;;;;;;;;;;;;;;;;;;5015390;28;19968;-80
2023/05/21 08:19:31;;;;;;;;;;;;;;;;;;5015776;28;19914;-77
2023/05/21 08:21:57;;;;;;;;;;;;;;;;;;5016382;28;20292;-80
2023/05/21 08:24:22;;;;;;;;;;;;;;;;;;5018271;28;19967;-80
2023/05/21 08:26:51;;;;;;;;;;;;;;;;;;5000435;28;19955;-77
2023/05/21 08:29:17;;;;;;;;;;;;;;;;;;5017836;28;19921;-79
2023/05/21 08:31:42;;;;;;;;;;;;;;;;;;5013944;28;20065;-79
2023/05/21 08:34:08;;;;;;;;;;;;;;;;;;5013605;28;19915;-79
2023/05/21 08:36:45;;;;;;;;;;;;;;;;;;5013437;28;19956;-80
2023/05/21 08:39:29;;;;;;;;;;;;;;;;;;5014178;28;19914;-78
2023/05/21 08:41:54;;;;;;;;;;;;;;;;;;5013956;28;20261;-79
2023/05/21 08:44:21;;;;;;;;;;;;;;;;;;5013096;28;20384;-79
2023/05/21 08:46:46;;;;;;;;;;;;;;;;;;5008602;28;20016;-80
2023/05/21 08:49:16;;;;;;;;;;;;;;;;;;4993329;28;19960;-80
2023/05/21 08:51:43;;;;;;;;;;;;;;;;;;4994762;28;19921;-79
2023/05/21 08:54:12;;;;;;;;;;;;;;;;;;4994441;28;20376;-80
2023/05/21 08:56:39;;;;;;;;;;;;;;;;;;5011895;28;19925;-80
2023/05/21 08:59:05;;;;;;;;;;;;;;;;;;5012157;28;19914;-81
2023/05/21 09:01:34;;;;;;;;;;;;;;;;;;5011140;28;19914;-80
2023/05/21 09:04:20;;;;;;;;;;;;;;;;;;5019282;28;19940;-79
2023/05/21 09:06:46;;;;;;;;;;;;;;;;;;5022883;28;19913;-79
2023/05/21 09:09:13;;;;;;;;;;;;;;;;;;5025273;28;19964;-80
2023/05/21 09:11:42;;;;;;;;;;;;;;;;;;5025153;28;19910;-80
2023/05/21 09:14:11;;;;;;;;;;;;;;;;;;5025490;28;19925;-81
2023/05/21 09:16:55;;;;;;;;;;;;;;;;;;5008719;28;20075;-80
2023/05/21 09:19:21;;;;;;;;;;;;;;;;;;5026983;28;19922;-80
2023/05/21 09:21:49;;;;;;;;;;;;;;;;;;5020335;28;20014;-78
2023/05/21 09:24:21;;;;;;;;;;;;;;;;;;4984395;28;19913;-79
2023/05/21 09:26:46;;;;;;;;;;;;;;;;;;5014880;28;19917;-80
2023/05/21 09:29:12;;;;;;;;;;;;;;;;;;5013581;28;19920;-79
2023/05/21 09:31:37;;;;;;;;;;;;;;;;;;5012278;28;19917;-81
2023/05/21 09:34:03;;;;;;;;;;;;;;;;;;5013305;28;20296;-78
2023/05/21 09:36:30;;;;;;;;;;;;;;;;;;5012451;28;19917;-80
2023/05/21 09:38:58;;;;;;;;;;;;;;;;;;4994711;28;19913;-79
2023/05/21 09:41:24;;;;;;;;;;;;;;;;;;5013588;28;19913;-79
2023/05/21 09:43:50;;;;;;;;;;;;;;;;;;5012228;28;19924;-79
2023/05/21 09:46:16;;;;;;;;;;;;;;;;;;5012263;28;19914;-80
2023/05/21 09:48:42;;;;;;;;;;;;;;;;;;5011630;28;20392;-81
2023/05/21 09:51:13;;;;;;;;;;;;;;;;;;5011433;28;19914;-80
2023/05/21 09:53:39;;;;;;;;;;;;;;;;;;5011183;28;19956;-81
2023/05/21 09:56:04;;;;;;;;;;;;;;;;;;5012857;28;19913;-79
2023/05/21 09:58:30;;;;;;;;;;;;;;;;;;5012979;28;20004;-81
2023/05/21 10:00:55;;;;;;;;;;;;;;;;;;5012381;28;20000;-81
2023/05/21 10:03:21;;;;;;;;;;;;;;;;;;5012575;28;20444;-80
2023/05/21 10:05:46;;;;;;;;;;;;;;;;;;5011733;28;19913;-81
2023/05/21 10:08:13;;;;;;;;;;;;;;;;;;4995090;28;20424;-81
2023/05/21 10:10:38;;;;;;;;;;;;;;;;;;5009885;28;19936;-81
2023/05/21 10:13:05;;;;;;;;;;;;;;;;;;5009181;28;20364;-80
2023/05/21 10:15:31;;;;;;;;;;;;;;;;;;5011529;28;20145;-82
2023/05/21 10:17:56;;;;;;;;;;;;;;;;;;5011319;28;20373;-81
2023/05/21 10:20:22;;;;;;;;;;;;;;;;;;5010933;28;19914;-81
2023/05/21 10:22:47;;;;;;;;;;;;;;;;;;5010117;28;19913;-80
2023/05/21 10:28:02;;;;;;;;;;;;;;;;;;5015549;28;20004;-80
2023/05/21 10:30:27;;;;;;;;;;;;;;;;;;5037957;22;20340;-81
2023/05/21 10:32:52;;;;;;;;;;;;;;;;;;5037950;28;19913;-82
2023/05/21 10:35:18;;;;;;;;;;;;;;;;;;5037500;28;19917;-81
2023/05/21 10:37:44;;;;;;;;;;;;;;;;;;5021647;28;20303;-81
2023/05/21 10:40:10;;;;;;;;;;;;;;;;;;5038646;28;19936;-82
2023/05/21 10:42:38;;;;;;;;;;;;;;;;;;5038922;28;19913;-82
2023/05/21 10:45:04;;;;;;;;;;;;;;;;;;5037827;28;20403;-81
2023/05/21 10:47:30;;;;;;;;;;;;;;;;;;5037642;28;19913;-80
2023/05/21 10:49:55;;;;;;;;;;;;;;;;;;5038494;28;19921;-81
2023/05/21 10:52:20;;;;;;;;;;;;;;;;;;5037859;28;20380;-82
2023/05/21 10:54:48;;;;;;;;;;;;;;;;;;5037472;28;19924;-81
2023/05/21 10:57:14;;;;;;;;;;;;;;;;;;5038962;28;19960;-82
2023/05/21 10:59:39;;;;;;;;;;;;;;;;;;5035926;28;20380;-80
2023/05/21 11:02:05;;;;;;;;;;;;;;;;;;5004627;28;20139;-80
2023/05/21 11:04:31;;;;;;;;;;;;;;;;;;5038816;28;19959;-82
2023/05/21 11:06:57;;;;;;;;;;;;;;;;;;5021532;28;19913;-81
2023/05/21 11:09:25;;;;;;;;;;;;;;;;;;5037087;28;19919;-81
2023/05/21 11:11:51;;;;;;;;;;;;;;;;;;5038559;28;19921;-82
2023/05/21 11:14:16;;;;;;;;;;;;;;;;;;5038459;28;20336;-83
2023/05/21 11:16:41;;;;;;;;;;;;;;;;;;5019993;28;19924;-82
2023/05/21 11:19:07;;;;;;;;;;;;;;;;;;5004854;28;19913;-81
2023/05/21 11:21:32;;;;;;;;;;;;;;;;;;5021022;28;20014;-82
2023/05/21 11:23:59;;;;;;;;;;;;;;;;;;5038891;28;19936;-81
2023/05/21 11:26:25;;;;;;;;;;;;;;;;;;5037245;28;19913;-82
2023/05/21 11:28:51;;;;;;;;;;;;;;;;;;5020652;28;19999;-83
2023/05/21 11:31:18;;;;;;;;;;;;;;;;;;5036823;28;19921;-82
2023/05/21 11:33:43;;;;;;;;;;;;;;;;;;5035775;28;19913;-82
2023/05/21 11:36:09;;;;;;;;;;;;;;;;;;5034864;28;19913;-81
2023/05/21 11:38:35;;;;;;;;;;;;;;;;;;5035137;28;20273;-82
2023/05/21 11:41:00;;;;;;;;;;;;;;;;;;5034704;28;20347;-81
2023/05/21 11:43:29;;;;;;;;;;;;;;;;;;5033931;28;19917;-82
2023/05/21 11:45:54;;;;;;;;;;;;;;;;;;5033584;28;20395;-81
2023/05/21 11:48:22;;;;;;;;;;;;;;;;;;5017655;28;19913;-81
2023/05/21 11:50:48;;;;;;;;;;;;;;;;;;5032244;28;20145;-82
2023/05/21 11:53:14;;;;;;;;;;;;;;;;;;5033351;28;19913;-81
2023/05/21 11:55:46;;;;;;;;;;;;;;;;;;5034278;28;20358;-81
2023/05/21 11:58:12;;;;;;;;;;;;;;;;;;5033490;28;20048;-81
2023/05/21 12:00:38;;;;;;;;;;;;;;;;;;5034263;28;19921;-82
2023/05/21 12:03:11;;;;;;;;;;;;;;;;;;5033422;28;19913;-81
2023/05/21 12:05:37;;;;;;;;;;;;;;;;;;5016952;28;19996;-81
2023/05/21 12:08:09;;;;;;;;;;;;;;;;;;5033526;28;19917;-81
2023/05/21 12:10:34;;;;;;;;;;;;;;;;;;5017472;28;20459;-81
2023/05/21 12:13:09;;;;;;;;;;;;;;;;;;5034643;28;20007;-81
2023/05/21 12:15:35;;;;;;;;;;;;;;;;;;5033453;28;19921;-82
2023/05/21 12:18:03;;;;;;;;;;;;;;;;;;5017368;28;20403;-82
2023/05/21 12:20:28;;;;;;;;;;;;;;;;;;5033338;28;20045;-82
2023/05/21 12:22:54;;;;;;;;;;;;;;;;;;5033473;28;20388;-82
2023/05/21 12:25:22;;;;;;;;;;;;;;;;;;5033909;28;19913;-82
2023/05/21 12:27:51;;;;;;;;;;;;;;;;;;5033876;28;19913;-82
2023/05/21 12:30:17;;;;;;;;;;;;;;;;;;5017366;28;19913;-82
2023/05/21 12:32:46;;;;;;;;;;;;;;;;;;5017861;28;19922;-82
2023/05/21 12:35:11;;;;;;;;;;;;;;;;;;5033849;28;19917;-82
2023/05/21 12:37:37;;;;;;;;;;;;;;;;;;5017082;28;20295;-81
2023/05/21 12:40:09;;;;;;;;;;;;;;;;;;5034096;28;19913;-81
2023/05/21 12:42:35;;;;;;;;;;;;;;;;;;5017895;28;20449;-81
2023/05/21 12:45:00;;;;;;;;;;;;;;;;;;5035202;28;19980;-82
2023/05/21 12:47:26;;;;;;;;;;;;;;;;;;5035831;28;20376;-82
2023/05/21 12:49:51;;;;;;;;;;;;;;;;;;5034061;28;20307;-81
2023/05/21 12:52:17;;;;;;;;;;;;;;;;;;5034939;28;19959;-81
2023/05/21 12:54:45;;;;;;;;;;;;;;;;;;5003226;28;20016;-81
2023/05/21 12:57:11;;;;;;;;;;;;;;;;;;5034276;28;19979;-80
2023/05/21 12:59:40;;;;;;;;;;;;;;;;;;5035758;28;19913;-81
2023/05/21 13:02:05;;;;;;;;;;;;;;;;;;5033830;28;20534;-81
2023/05/21 13:04:31;;;;;;;;;;;;;;;;;;5034981;28;19913;-80
2023/05/21 13:06:56;;;;;;;;;;;;;;;;;;5000895;28;19924;-81
2023/05/21 13:09:22;;;;;;;;;;;;;;;;;;5033416;28;19940;-81
2023/05/21 13:11:50;;;;;;;;;;;;;;;;;;5017358;28;20266;-82
2023/05/21 13:14:16;;;;;;;;;;;;;;;;;;5032649;28;19917;-82
2023/05/21 13:16:41;;;;;;;;;;;;;;;;;;5033036;28;20399;-80
2023/05/21 13:19:07;;;;;;;;;;;;;;;;;;5016676;28;19913;-80
2023/05/21 13:21:35;;;;;;;;;;;;;;;;;;5032279;28;19991;-81
2023/05/21 13:24:03;;;;;;;;;;;;;;;;;;5034618;28;20368;-80
2023/05/21 13:26:29;;;;;;;;;;;;;;;;;;5033883;28;19959;-81
2023/05/21 13:28:57;;;;;;;;;;;;;;;;;;5031987;28;19914;-81
2023/05/21 13:31:22;;;;;;;;;;;;;;;;;;5015919;28;19917;-80
2023/05/21 13:33:48;;;;;;;;;;;;;;;;;;5033069;28;19920;-83
2023/05/21 13:36:13;;;;;;;;;;;;;;;;;;5015419;28;20304;-81
2023/05/21 13:38:39;;;;;;;;;;;;;;;;;;5031902;28;19913;-81
2023/05/21 13:41:08;;;;;;;;;;;;;;;;;;5015335;28;20300;-82
2023/05/21 13:43:33;;;;;;;;;;;;;;;;;;5033534;28;20383;-80
2023/05/21 13:45:59;;;;;;;;;;;;;;;;;;5033359;28;19920;-81
2023/05/21 13:48:24;;;;;;;;;;;;;;;;;;5031315;28;20179;-81
2023/05/21 13:50:50;;;;;;;;;;;;;;;;;;5031444;28;19913;-82
2023/05/21 13:53:15;;;;;;;;;;;;;;;;;;5031913;28;20277;-82
2023/05/21 13:55:41;;;;;;;;;;;;;;;;;;5015215;28;19925;-82
2023/05/21 13:58:07;;;;;;;;;;;;;;;;;;5032465;28;19913;-82
2023/05/21 14:00:32;;;;;;;;;;;;;;;;;;5031385;28;20375;-82
2023/05/21 14:03:01;;;;;;;;;;;;;;;;;;5030653;28;20454;-82
2023/05/21 14:05:27;;;;;;;;;;;;;;;;;;5032145;28;19948;-81
2023/05/21 14:07:52;;;;;;;;;;;;;;;;;;4999400;28;20382;-82
2023/05/21 14:10:22;;;;;;;;;;;;;;;;;;5015553;28;19913;-80
2023/05/21 14:12:47;;;;;;;;;;;;;;;;;;5032980;28;19913;-82
2023/05/21 14:15:12;;;;;;;;;;;;;;;;;;5031915;28;20292;-82
2023/05/21 14:17:40;;;;;;;;;;;;;;;;;;5031449;28;19931;-82
2023/05/21 14:20:08;;;;;;;;;;;;;;;;;;5015832;28;19914;-83
2023/05/21 14:22:34;;;;;;;;;;;;;;;;;;5016432;28;19920;-81
2023/05/21 14:25:03;;;;;;;;;;;;;;;;;;5017140;28;19936;-81
2023/05/21 14:27:28;;;;;;;;;;;;;;;;;;5036845;28;19913;-81
2023/05/21 14:29:54;;;;;;;;;;;;;;;;;;5045648;28;19920;-81
2023/05/21 14:32:22;;;;;;;;;;;;;;;;;;5026011;28;19960;-81
2023/05/21 14:34:48;;;;;;;;;;;;;;;;;;5042872;28;20007;-81
2023/05/21 14:37:13;;;;;;;;;;;;;;;;;;5046986;28;19920;-81
2023/05/21 14:39:39;;;;;;;;;;;;;;;;;;5028360;28;19913;-83
2023/05/21 14:42:04;;;;;;;;;;;;;;;;;;5043255;28;19996;-80
2023/05/21 14:44:33;;;;;;;;;;;;;;;;;;5040866;28;19915;-82
2023/05/21 14:47:01;;;;;;;;;;;;;;;;;;5045517;28;19913;-82
2023/05/21 14:49:30;;;;;;;;;;;;;;;;;;5044864;28;19968;-82
2023/05/21 14:51:58;;;;;;;;;;;;;;;;;;5042356;28;19917;-81
2023/05/21 14:54:24;;;;;;;;;;;;;;;;;;5044679;28;19985;-81
2023/05/21 14:56:58;;;;;;;;;;;;;;;;;;5046276;28;20414;-82
2023/05/21 14:59:27;;;;;;;;;;;;;;;;;;5046831;28;20008;-82
2023/05/21 15:01:55;;;;;;;;;;;;;;;;;;5044312;28;20365;-82
2023/05/21 15:04:23;;;;;;;;;;;;;;;;;;5043844;28;19915;-80
2023/05/21 15:06:51;;;;;;;;;;;;;;;;;;5029473;28;19928;-82
2023/05/21 15:09:17;;;;;;;;;;;;;;;;;;5029452;28;19941;-82
2023/05/21 15:11:44;;;;;;;;;;;;;;;;;;5049729;28;19926;-81
2023/05/21 15:14:10;;;;;;;;;;;;;;;;;;5050657;28;19913;-80
2023/05/21 15:16:36;;;;;;;;;;;;;;;;;;5049371;28;19939;-79
2023/05/21 15:19:01;;;;;;;;;;;;;;;;;;5045886;28;20012;-81
2023/05/21 15:21:27;;;;;;;;;;;;;;;;;;5026705;28;19913;-81
2023/05/21 15:23:52;;;;;;;;;;;;;;;;;;5039914;28;19967;-81
2023/05/21 15:26:18;;;;;;;;;;;;;;;;;;5020615;28;20095;-81
2023/05/21 15:28:43;;;;;;;;;;;;;;;;;;5024468;28;19909;-81
2023/05/21 15:31:09;;;;;;;;;;;;;;;;;;5007238;28;19967;-81
2023/05/21 15:33:35;;;;;;;;;;;;;;;;;;5041482;28;19916;-80
2023/05/21 15:36:04;;;;;;;;;;;;;;;;;;5024147;28;19924;-80
2023/05/21 15:38:29;;;;;;;;;;;;;;;;;;5021404;28;19910;-81
2023/05/21 15:40:55;;;;;;;;;;;;;;;;;;5021345;28;19913;-81
2023/05/21 15:43:20;;;;;;;;;;;;;;;;;;5003659;28;19909;-82
2023/05/21 15:45:46;;;;;;;;;;;;;;;;;;5018548;28;20323;-81
2023/05/21 15:48:12;;;;;;;;;;;;;;;;;;5035143;28;20003;-81
2023/05/21 15:50:49;;;;;;;;;;;;;;;;;;5019004;28;19948;-81
2023/05/21 15:53:16;;;;;;;;;;;;;;;;;;5018205;28;19917;-81
2023/05/21 15:55:44;;;;;;;;;;;;;;;;;;5034429;28;19918;-82
2023/05/21 15:58:15;;;;;;;;;;;;;;;;;;5037882;28;20364;-81
2023/05/21 16:00:44;;;;;;;;;;;;;;;;;;5034803;28;19920;-81
2023/05/21 16:03:11;;;;;;;;;;;;;;;;;;5035946;28;20364;-82
2023/05/21 16:05:39;;;;;;;;;;;;;;;;;;5034328;28;19924;-82
2023/05/21 16:08:14;;;;;;;;;;;;;;;;;;5034546;28;19913;-81
2023/05/21 16:10:44;;;;;;;;;;;;;;;;;;5034412;28;19913;-82
2023/05/21 16:13:15;;;;;;;;;;;;;;;;;;5035050;28;19913;-82
2023/05/21 16:15:44;;;;;;;;;;;;;;;;;;5034155;28;20349;-82
2023/05/21 16:18:10;;;;;;;;;;;;;;;;;;5032830;28;19975;-82
2023/05/21 16:20:35;;;;;;;;;;;;;;;;;;5033335;28;20456;-81
2023/05/21 16:23:05;;;;;;;;;;;;;;;;;;5016325;28;20342;-83
2023/05/21 16:25:34;;;;;;;;;;;;;;;;;;5002243;28;19914;-81
2023/05/21 16:28:00;;;;;;;;;;;;;;;;;;5035433;28;19913;-83
2023/05/21 16:30:26;;;;;;;;;;;;;;;;;;5046698;22;19913;-75
2023/05/21 16:32:51;;;;;;;;;;;;;;;;;;5013981;28;20300;-76
2023/05/21 16:35:19;;;;;;;;;;;;;;;;;;5012000;28;20412;-77
2023/05/21 16:37:45;;;;;;;;;;;;;;;;;;5013379;28;19964;-77
2023/05/21 16:40:10;;;;;;;;;;;;;;;;;;5014012;28;19913;-76
2023/05/21 16:43:01;;;;;;;;;;;;;;;;;;4994528;28;19969;-78
2023/05/21 16:45:26;;;;;;;;;;;;;;;;;;4994672;28;19917;-77